CheckWX is a tool to help pilots better visualize weather data.  It is not intended as a substitute for an official pre-flight weather briefing.

12:25:15 UTC

PHNY TAF
Lanai Airport
Lanai City, Hawaii, USA
PHNY 221124Z 2212/2312 04010KT P6SM FEW025 FM222000 26006KT P6SM SCT025 BKN035 FM230200 05014G20KT P6SM FEW025 SCT035

Mar-22@
12:00 UTC

Mar-22 @ 12:00 UTC

Mar-22@
20:00 UTC

Mar-22 @ 20:00 UTC

PHNY 221124Z 2212/2312 04010KT P6SM FEW025
Wind
  • 040° at 10 KTS
Cloud Levels
  • Few at 2,500' AGL

Mar-22@
20:00 UTC

Mar-22 @ 20:00 UTC

Mar-23@
02:00 UTC

Mar-23 @ 02:00 UTC

FM222000 26006KT P6SM SCT025 BKN035

From

From Standard forecast or significant change

Wind
  • 260° at 6 KTS
Cloud Levels
  • Scattered at 2,500' AGL
  • Broken at 3,500' AGL

Mar-23@
02:00 UTC

Mar-23 @ 02:00 UTC

Mar-23@
12:00 UTC

Mar-23 @ 12:00 UTC

FM230200 05014G20KT P6SM FEW025 SCT035

From

From Standard forecast or significant change

Wind
  • 050° at 14 KTS
  • {Gusting to 20 KTS
Cloud Levels
  • Few at 2,500' AGL
  • Scattered at 3,500' AGL